createdAt,value
2019-04-14T00:02:25.100Z,7.53
2019-04-14T00:04:52.952Z,7.73
2019-04-14T00:07:19.136Z,7.90
2019-04-14T00:09:45.310Z,8.57
2019-04-14T00:12:12.084Z,7.97
2019-04-14T00:14:38.317Z,9.23
2019-04-14T00:17:04.327Z,8.47
2019-04-14T00:19:32.696Z,7.93
2019-04-14T00:22:00.785Z,8.77
2019-04-14T00:24:27.074Z,8.30
2019-04-14T00:26:53.161Z,7.67
2019-04-14T00:29:19.530Z,8.03
2019-04-14T00:31:45.608Z,8.17
2019-04-14T00:34:20.307Z,8.40
2019-04-14T00:37:07.771Z,7.50
2019-04-14T00:39:35.769Z,7.60
2019-04-14T00:42:21.222Z,7.83
2019-04-14T00:44:49.606Z,7.73
2019-04-14T00:47:31.035Z,8.97
2019-04-14T00:49:57.320Z,8.17
2019-04-14T00:52:23.484Z,7.73
2019-04-14T00:54:50.045Z,8.37
2019-04-14T00:57:16.077Z,8.67
2019-04-14T00:59:41.928Z,8.37
2019-04-14T01:02:07.847Z,7.87
2019-04-14T01:04:33.816Z,9.27
2019-04-14T01:07:00.120Z,8.10
2019-04-14T01:09:28.263Z,8.37
2019-04-14T01:11:55.212Z,8.50
2019-04-14T01:14:21.343Z,8.43
2019-04-14T01:16:47.383Z,8.90
2019-04-14T01:19:13.411Z,8.77
2019-04-14T01:21:39.334Z,8.07
2019-04-14T01:24:05.358Z,8.47
2019-04-14T01:26:31.246Z,8.67
2019-04-14T01:28:57.193Z,8.77
2019-04-14T01:31:23.122Z,9.07
2019-04-14T01:33:49.142Z,9.00
2019-04-14T01:36:15.019Z,9.23
2019-04-14T01:38:40.919Z,9.87
2019-04-14T01:41:10.647Z,10.17
2019-04-14T01:43:36.649Z,8.93
2019-04-14T01:46:11.587Z,10.37
2019-04-14T01:48:30.413Z,10.47
2019-04-14T01:51:07.129Z,9.67
2019-04-14T01:53:53.195Z,10.40
2019-04-14T01:56:21.081Z,9.37
2019-04-14T01:58:49.106Z,9.20
2019-04-14T02:01:17.120Z,9.40
2019-04-14T02:03:43.353Z,10.10
2019-04-14T02:06:09.377Z,9.03
2019-04-14T02:08:35.289Z,9.80
2019-04-14T02:11:01.181Z,9.77
2019-04-14T02:13:26.997Z,9.93
2019-04-14T02:15:52.955Z,9.83
2019-04-14T02:18:18.809Z,9.60
2019-04-14T02:20:44.797Z,9.13
2019-04-14T02:23:11.032Z,9.43
2019-04-14T02:25:38.107Z,9.20
2019-04-14T02:28:04.764Z,9.73
2019-04-14T02:30:38.897Z,9.70
2019-04-14T02:33:35.280Z,10.20
2019-04-14T02:36:04.020Z,9.60
2019-04-14T02:40:56.124Z,9.33
2019-04-14T02:43:23.874Z,9.43
2019-04-14T02:45:50.060Z,8.77
2019-04-14T02:48:41.836Z,10.07
2019-04-14T02:50:43.843Z,10.33
2019-04-14T02:53:09.129Z,9.47
2019-04-14T02:55:29.997Z,9.57
2019-04-14T02:58:04.370Z,10.37
2019-04-14T03:03:03.496Z,8.73
2019-04-14T03:05:26.503Z,9.90
2019-04-14T03:07:59.890Z,9.27
2019-04-14T03:10:29.910Z,9.33
2019-04-14T03:15:20.114Z,9.03
2019-04-14T03:18:12.488Z,9.23
2019-04-14T03:25:43.289Z,8.60
2019-04-14T03:28:36.668Z,9.50
2019-04-14T03:31:09.822Z,9.30
2019-04-14T03:33:55.766Z,9.37
2019-04-14T03:38:28.614Z,9.17
2019-04-14T03:40:50.599Z,9.23
2019-04-14T03:43:22.619Z,10.47
2019-04-14T03:46:01.075Z,9.40
2019-04-14T03:50:37.007Z,9.70
2019-04-14T03:55:37.268Z,8.77
2019-04-14T03:57:56.337Z,9.40
2019-04-14T04:00:22.419Z,9.33
2019-04-14T04:02:48.864Z,9.00
2019-04-14T04:05:15.177Z,9.43
2019-04-14T04:07:41.144Z,9.47
2019-04-14T04:10:09.358Z,9.60
2019-04-14T04:12:35.761Z,9.13
2019-04-14T04:15:02.016Z,9.77
2019-04-14T04:17:32.354Z,9.23
2019-04-14T04:20:00.078Z,8.77
2019-04-14T04:22:36.916Z,9.67
2019-04-14T04:25:14.491Z,10.03
2019-04-14T04:27:46.104Z,9.33
2019-04-14T04:30:25.615Z,9.53
2019-04-14T04:33:11.476Z,9.60
2019-04-14T04:35:39.370Z,9.90
2019-04-14T04:38:15.988Z,9.57
2019-04-14T04:40:41.909Z,9.00
2019-04-14T04:43:08.645Z,9.90
2019-04-14T04:45:34.560Z,9.80
2019-04-14T04:48:00.711Z,10.23
2019-04-14T04:50:26.610Z,10.10
2019-04-14T04:52:52.459Z,9.53
2019-04-14T04:55:18.331Z,10.63
2019-04-14T04:57:44.177Z,9.50
2019-04-14T05:00:11.432Z,9.53
2019-04-14T05:02:37.491Z,10.40
2019-04-14T05:05:07.719Z,9.40
2019-04-14T05:07:33.978Z,9.97
2019-04-14T05:10:19.346Z,10.73
2019-04-14T05:12:47.964Z,9.53
2019-04-14T05:15:16.232Z,10.03
2019-04-14T05:17:47.407Z,9.53
2019-04-14T05:20:16.434Z,9.77
2019-04-14T05:22:42.373Z,9.83
2019-04-14T05:25:08.224Z,10.23
2019-04-14T05:27:34.190Z,10.53
2019-04-14T05:30:00.406Z,9.87
2019-04-14T05:32:26.348Z,11.20
2019-04-14T05:34:52.259Z,9.70
2019-04-14T05:37:18.272Z,10.30
2019-04-14T05:39:44.239Z,10.73
2019-04-14T05:42:14.820Z,11.07
2019-04-14T05:44:38.232Z,10.13
2019-04-14T05:47:04.402Z,9.63
2019-04-14T05:49:37.856Z,8.40
2019-04-14T05:51:59.090Z,9.23
2019-04-14T05:54:25.293Z,9.13
2019-04-14T05:56:51.602Z,9.03
2019-04-14T05:59:17.729Z,9.90
2019-04-14T06:01:44.312Z,10.37
2019-04-14T06:04:11.367Z,8.97
2019-04-14T06:06:37.392Z,7.37
2019-04-14T06:09:06.039Z,8.33
2019-04-14T06:11:31.899Z,9.03
2019-04-14T06:13:57.866Z,8.87
2019-04-14T06:16:23.789Z,9.40
2019-04-14T06:18:49.627Z,7.60
2019-04-14T06:21:15.509Z,9.13
2019-04-14T06:23:41.475Z,8.10
2019-04-14T06:26:07.399Z,8.37
2019-04-14T06:28:33.262Z,7.97
2019-04-14T06:31:17.833Z,8.33
2019-04-14T06:33:48.101Z,8.73
2019-04-14T06:36:32.531Z,7.67
2019-04-14T06:39:06.559Z,8.03
2019-04-14T06:41:35.296Z,7.53
2019-04-14T06:44:01.243Z,7.67
2019-04-14T06:46:27.867Z,8.20
2019-04-14T06:48:53.727Z,8.17
2019-04-14T06:51:19.591Z,7.60
2019-04-14T06:53:45.530Z,8.13
2019-04-14T06:56:11.378Z,8.03
2019-04-14T06:58:37.203Z,9.07
2019-04-14T07:01:03.074Z,9.23
2019-04-14T07:03:29.031Z,9.77
2019-04-14T07:05:54.883Z,8.73
2019-04-14T07:08:20.734Z,9.30
2019-04-14T07:10:46.652Z,9.17
2019-04-14T07:13:13.999Z,9.73
2019-04-14T07:15:40.197Z,9.23
2019-04-14T07:18:06.127Z,9.57
2019-04-14T07:20:32.046Z,9.83
2019-04-14T07:39:53.082Z,21.40
2019-04-14T07:46:18.161Z,16.83
2019-04-14T07:56:14.706Z,25.13
2019-04-14T07:59:36.924Z,45.83
2019-04-14T08:01:42.884Z,14.97
2019-04-14T08:04:27.780Z,16.17
2019-04-14T08:07:04.619Z,17.63
2019-04-14T08:09:33.764Z,15.63
2019-04-14T08:21:43.518Z,12.10
2019-04-14T08:24:09.401Z,12.43
2019-04-14T08:26:35.350Z,12.03
2019-04-14T08:29:01.276Z,10.90
2019-04-14T08:31:27.180Z,11.70
2019-04-14T08:33:53.204Z,12.73
2019-04-14T08:36:19.178Z,11.07
2019-04-14T08:38:45.122Z,11.53
2019-04-14T08:41:11.092Z,11.90
2019-04-14T08:43:39.018Z,11.30
2019-04-14T08:46:09.812Z,11.70
2019-04-14T08:51:31.874Z,11.37
2019-04-14T08:54:16.088Z,13.37
2019-04-14T08:57:01.874Z,12.47
2019-04-14T08:59:47.512Z,13.53
2019-04-14T09:20:52.816Z,12.53
2019-04-14T09:27:07.534Z,25.90
2019-04-14T09:38:52.854Z,10.50
2019-04-14T09:41:19.126Z,11.47
2019-04-14T09:43:50.106Z,15.23
2019-04-14T09:46:16.038Z,10.63
2019-04-14T09:48:43.062Z,11.20
2019-04-14T09:51:09.110Z,12.00
2019-04-14T09:53:34.960Z,11.83
2019-04-14T09:56:00.852Z,11.87
2019-04-14T09:58:27.093Z,11.60
2019-04-14T10:00:53.065Z,12.03
2019-04-14T10:03:19.154Z,11.00
2019-04-14T10:05:45.073Z,11.90
2019-04-14T10:08:10.985Z,11.00
2019-04-14T10:10:36.986Z,11.10
2019-04-14T10:13:03.033Z,11.43
2019-04-14T10:15:28.907Z,10.80
2019-04-14T10:17:54.742Z,10.77
2019-04-14T10:20:20.613Z,10.33
2019-04-14T10:22:46.485Z,11.77
2019-04-14T10:25:12.307Z,11.77
2019-04-14T10:27:38.399Z,11.30
2019-04-14T10:30:05.673Z,11.53
2019-04-14T10:32:31.553Z,11.10
2019-04-14T10:34:57.408Z,12.00
2019-04-14T10:37:23.427Z,11.60
2019-04-14T10:39:49.360Z,11.40
2019-04-14T10:42:15.240Z,11.40
2019-04-14T10:44:41.079Z,11.10
2019-04-14T10:47:08.573Z,10.87
2019-04-14T10:49:34.509Z,10.93
2019-04-14T10:52:01.465Z,11.20
2019-04-14T10:54:28.743Z,11.07
2019-04-14T10:56:54.645Z,11.33
2019-04-14T10:59:20.626Z,11.13
2019-04-14T11:01:46.503Z,11.00
2019-04-14T11:04:12.368Z,10.77
2019-04-14T11:06:46.029Z,12.13
2019-04-14T11:09:14.107Z,11.17
2019-04-14T11:11:39.966Z,11.67
2019-04-14T11:14:05.914Z,10.60
2019-04-14T11:16:31.806Z,11.77
2019-04-14T11:18:57.773Z,11.27
2019-04-14T11:21:24.013Z,11.67
2019-04-14T11:23:49.835Z,10.40
2019-04-14T11:26:15.750Z,11.87
2019-04-14T11:28:41.599Z,11.03
2019-04-14T11:31:07.581Z,10.43
2019-04-14T11:33:35.327Z,10.57
2019-04-14T11:36:19.667Z,11.30
2019-04-14T11:39:00.767Z,11.60
2019-04-14T11:41:26.595Z,10.57
2019-04-14T11:43:52.519Z,11.53
2019-04-14T11:46:18.471Z,10.87
2019-04-14T11:48:44.436Z,11.00
2019-04-14T11:51:10.359Z,10.77
2019-04-14T11:53:36.262Z,11.40
2019-04-14T11:56:02.673Z,10.80
2019-04-14T11:58:29.316Z,10.67
2019-04-14T12:00:59.829Z,9.93
2019-04-14T12:03:33.721Z,10.37
2019-04-14T12:06:04.219Z,11.47
2019-04-14T12:08:37.585Z,11.20
2019-04-14T12:11:06.041Z,10.73
2019-04-14T12:13:32.095Z,11.13
2019-04-14T12:15:57.983Z,10.73
2019-04-14T12:18:23.859Z,10.00
2019-04-14T12:20:49.697Z,11.10
2019-04-14T12:23:16.148Z,11.00
2019-04-14T12:25:42.215Z,10.47
2019-04-14T12:28:09.177Z,10.47
2019-04-14T12:30:35.633Z,9.83
2019-04-14T12:33:03.539Z,11.17
2019-04-14T12:35:29.379Z,10.83
2019-04-14T12:37:55.293Z,10.77
2019-04-14T12:40:21.233Z,10.03
2019-04-14T12:42:49.107Z,9.87
2019-04-14T12:46:02.039Z,10.40
2019-04-14T12:48:45.975Z,9.80
2019-04-14T12:51:13.756Z,10.30
2019-04-14T12:53:39.636Z,9.20
2019-04-14T12:56:05.463Z,9.30
2019-04-14T12:58:42.117Z,10.07
2019-04-14T13:01:15.557Z,10.17
2019-04-14T13:03:42.068Z,10.97
2019-04-14T13:06:08.294Z,8.67
2019-04-14T13:08:34.225Z,8.90
2019-04-14T13:11:00.300Z,9.17
2019-04-14T13:13:26.258Z,8.73
2019-04-14T13:15:54.004Z,9.83
2019-04-14T13:18:19.867Z,8.23
2019-04-14T13:20:45.733Z,9.77
2019-04-14T13:23:11.599Z,8.97
2019-04-14T13:25:37.458Z,9.10
2019-04-14T13:28:05.850Z,8.40
2019-04-14T13:30:33.653Z,8.50
2019-04-14T13:32:59.610Z,8.17
2019-04-14T13:35:27.843Z,8.83
2019-04-14T13:37:53.824Z,8.23
2019-04-14T13:40:19.881Z,9.00
2019-04-14T13:42:45.908Z,8.13
2019-04-14T13:45:11.965Z,8.17
2019-04-14T13:47:37.943Z,8.43
2019-04-14T13:56:43.030Z,29.03
2019-04-14T14:02:41.418Z,8.63
2019-04-14T14:05:07.416Z,9.77
2019-04-14T14:07:33.263Z,8.67
2019-04-14T14:09:59.220Z,9.07
2019-04-14T14:15:33.502Z,9.13
2019-04-14T14:18:01.347Z,9.17
2019-04-14T14:20:29.196Z,9.37
2019-04-14T14:23:15.112Z,8.77
2019-04-14T14:25:45.784Z,9.47
2019-04-14T14:28:11.606Z,8.93
2019-04-14T14:30:37.590Z,8.20
2019-04-14T14:33:03.478Z,9.10
2019-04-14T14:35:29.937Z,8.90
2019-04-14T14:37:55.873Z,8.90
2019-04-14T14:40:21.844Z,8.40
2019-04-14T14:42:47.684Z,8.80
2019-04-14T14:45:18.982Z,8.10
2019-04-14T14:47:46.751Z,7.97
2019-04-14T14:50:26.138Z,8.67
2019-04-14T14:52:52.054Z,9.00
2019-04-14T14:55:17.894Z,8.93
2019-04-14T14:57:43.842Z,8.93
2019-04-14T15:00:11.927Z,9.53
2019-04-14T15:02:37.744Z,8.00
2019-04-14T15:05:05.503Z,8.90
2019-04-14T15:07:31.422Z,7.93
2019-04-14T15:09:57.279Z,8.30
2019-04-14T15:12:24.546Z,8.07
2019-04-14T15:14:50.640Z,16.73
2019-04-14T15:17:16.715Z,9.87
2019-04-14T15:19:42.665Z,9.77
2019-04-14T15:22:08.710Z,9.93
2019-04-14T15:24:34.667Z,9.87
2019-04-14T15:27:00.738Z,9.17
2019-04-14T15:29:26.686Z,9.90
2019-04-14T15:31:52.898Z,10.13
2019-04-14T15:34:19.091Z,12.80
2019-04-14T15:36:45.104Z,8.93
2019-04-14T15:39:11.386Z,9.83
2019-04-14T15:41:37.451Z,8.50
2019-04-14T15:44:03.501Z,9.37
2019-04-14T15:46:33.399Z,9.17
2019-04-14T15:48:59.457Z,7.60
2019-04-14T15:51:59.973Z,11.67
2019-04-14T15:54:26.278Z,8.70
2019-04-14T15:56:54.453Z,8.37
2019-04-14T15:59:22.374Z,8.93
2019-04-14T16:01:53.320Z,8.93
2019-04-14T16:04:25.471Z,10.10
2019-04-14T16:06:59.410Z,9.13
2019-04-14T16:09:27.445Z,7.97
2019-04-14T16:12:12.314Z,8.50
2019-04-14T16:14:40.227Z,8.47
2019-04-14T16:17:14.531Z,9.13
2019-04-14T16:19:48.775Z,9.33
2019-04-14T16:22:14.871Z,11.67
2019-04-14T16:24:40.917Z,9.97
2019-04-14T16:27:14.910Z,9.90
2019-04-14T16:29:42.919Z,9.10
2019-04-14T16:32:16.719Z,11.33
2019-04-14T16:34:44.509Z,10.30
2019-04-14T16:37:10.593Z,8.97
2019-04-14T16:39:36.601Z,8.27
2019-04-14T16:42:02.665Z,9.03
2019-04-14T16:44:28.613Z,11.50
2019-04-14T16:46:54.643Z,8.80
2019-04-14T16:49:20.657Z,11.43
2019-04-14T16:51:51.255Z,11.30
2019-04-14T16:54:25.054Z,11.03
2019-04-14T16:57:12.629Z,8.03
2019-04-14T16:59:38.598Z,11.13
2019-04-14T17:02:10.887Z,9.47
2019-04-14T17:04:32.633Z,9.37
2019-04-14T17:06:58.643Z,8.77
2019-04-14T17:09:24.634Z,9.07
2019-04-14T17:11:50.691Z,9.73
2019-04-14T17:14:18.845Z,10.40
2019-04-14T17:16:55.624Z,9.03
2019-04-14T17:19:29.714Z,10.97
2019-04-14T17:22:00.833Z,8.13
2019-04-14T17:24:34.921Z,8.13
2019-04-14T17:27:02.916Z,8.67
2019-04-14T17:29:30.876Z,9.60
2019-04-14T17:31:59.933Z,8.30
2019-04-14T17:34:27.909Z,9.80
2019-04-14T17:37:00.063Z,7.73
2019-04-14T17:39:36.882Z,7.30
2019-04-14T17:42:23.271Z,8.87
2019-04-14T17:45:00.152Z,8.30
2019-04-14T17:47:44.582Z,8.40
2019-04-14T17:50:40.491Z,8.30
2019-04-14T17:53:18.723Z,8.77
2019-04-14T17:56:04.173Z,7.97
2019-04-14T17:58:43.338Z,11.80
2019-04-14T18:01:19.026Z,9.17
2019-04-14T18:03:53.228Z,11.37
2019-04-14T18:06:25.973Z,8.93
2019-04-14T18:09:00.077Z,10.10
2019-04-14T18:11:31.258Z,8.60
2019-04-14T18:14:17.402Z,10.07
2019-04-14T18:16:57.328Z,9.47
2019-04-14T18:19:28.449Z,8.13
2019-04-14T18:21:54.663Z,9.03
2019-04-14T18:24:25.051Z,8.53
2019-04-14T18:27:04.130Z,9.50
2019-04-14T18:29:44.117Z,10.17
2019-04-14T18:32:40.607Z,11.90
2019-04-14T18:35:38.350Z,9.77
2019-04-14T18:38:12.474Z,9.37
2019-04-14T18:41:05.461Z,19.43
2019-04-14T18:46:45.550Z,12.20
2019-04-14T18:49:38.978Z,15.67
2019-04-14T18:52:25.768Z,13.57
2019-04-14T18:55:19.402Z,16.40
2019-04-14T19:04:02.143Z,17.67
2019-04-14T19:09:28.846Z,12.17
2019-04-14T19:16:54.408Z,11.83
2019-04-14T19:21:50.187Z,29.73
2019-04-14T19:25:30.707Z,28.10
2019-04-14T19:37:07.038Z,49.50
2019-04-14T19:43:23.726Z,5.00
2019-04-14T19:45:43.107Z,4.53
2019-04-14T19:52:02.510Z,4.43
2019-04-14T19:54:28.461Z,4.73
2019-04-14T19:56:55.719Z,4.17
2019-04-14T19:59:21.739Z,4.70
2019-04-14T20:01:49.547Z,4.67
2019-04-14T20:04:24.998Z,3.57
2019-04-14T20:06:50.946Z,4.23
2019-04-14T20:09:16.792Z,4.47
2019-04-14T20:11:42.750Z,4.57
2019-04-14T20:14:08.667Z,5.10
2019-04-14T20:16:39.265Z,4.03
2019-04-14T20:19:10.985Z,4.47
2019-04-14T20:21:44.998Z,5.03
2019-04-14T20:24:21.612Z,4.10
2019-04-14T20:26:49.637Z,4.63
2019-04-14T20:29:17.496Z,3.67
2019-04-14T20:31:51.415Z,4.03
2019-04-14T20:34:17.308Z,3.80
2019-04-14T20:36:43.243Z,3.60
2019-04-14T20:39:11.088Z,4.33
2019-04-14T20:41:36.944Z,4.23
2019-04-14T20:44:02.925Z,3.77
2019-04-14T20:46:28.910Z,3.80
2019-04-14T20:48:54.839Z,3.67
2019-04-14T20:51:20.697Z,3.90
2019-04-14T20:53:46.583Z,4.77
2019-04-14T20:56:12.544Z,4.50
2019-04-14T20:58:38.470Z,4.20
2019-04-14T21:01:06.329Z,4.27
2019-04-14T21:03:36.863Z,3.80
2019-04-14T21:06:04.666Z,4.07
2019-04-14T21:08:40.201Z,4.60
2019-04-14T21:14:14.922Z,3.87
2019-04-14T21:16:42.680Z,4.87
2019-04-14T21:19:17.534Z,4.23
2019-04-14T21:24:52.607Z,4.33
2019-04-14T21:27:25.956Z,4.57
2019-04-14T21:29:59.777Z,3.93
2019-04-14T21:32:36.619Z,4.30
2019-04-14T21:35:11.255Z,3.93
2019-04-14T21:37:41.765Z,4.37
2019-04-14T21:40:15.310Z,4.23
2019-04-14T21:42:42.358Z,4.97
2019-04-14T21:45:08.330Z,5.03
2019-04-14T21:47:34.179Z,4.50
2019-04-14T21:50:00.015Z,4.13
2019-04-14T21:52:27.779Z,4.30
2019-04-14T21:54:53.674Z,4.17
2019-04-14T21:57:26.993Z,4.83
2019-04-14T22:00:12.961Z,4.60
2019-04-14T22:02:57.188Z,4.93
2019-04-14T22:05:27.741Z,4.73
2019-04-14T22:08:01.178Z,4.60
2019-04-14T22:10:29.169Z,5.00
2019-04-14T22:12:55.076Z,4.60
2019-04-14T22:15:20.905Z,4.77
2019-04-14T22:17:46.752Z,4.80
2019-04-14T22:20:12.703Z,5.40
2019-04-14T22:22:38.638Z,4.90
2019-04-14T22:25:05.599Z,4.67
2019-04-14T22:27:31.417Z,4.70
2019-04-14T22:29:57.239Z,4.60
2019-04-14T22:32:23.099Z,5.10
2019-04-14T22:34:48.963Z,4.83
2019-04-14T22:37:14.829Z,5.37
2019-04-14T22:39:40.692Z,5.13
2019-04-14T22:42:06.535Z,4.67
2019-04-14T22:44:32.383Z,4.43
2019-04-14T22:46:58.237Z,4.97
2019-04-14T22:49:24.201Z,4.10
2019-04-14T22:51:50.163Z,5.27
2019-04-14T22:54:16.011Z,5.17
2019-04-14T22:56:41.845Z,5.30
2019-04-14T22:59:07.745Z,4.97
2019-04-14T23:01:35.495Z,4.80
2019-04-14T23:04:09.153Z,4.87
2019-04-14T23:06:39.630Z,5.30
2019-04-14T23:09:16.670Z,4.53
2019-04-14T23:11:53.206Z,4.90
2019-04-14T23:14:23.838Z,5.27
2019-04-14T23:16:57.336Z,4.90
2019-04-14T23:19:27.939Z,4.73
2019-04-14T23:22:01.528Z,4.47
2019-04-14T23:24:32.006Z,5.10
2019-04-14T23:26:57.923Z,4.60
2019-04-14T23:29:23.870Z,5.07
2019-04-14T23:31:49.827Z,4.77
2019-04-14T23:34:15.663Z,4.80
2019-04-14T23:36:41.743Z,4.57
2019-04-14T23:39:09.594Z,6.13
2019-04-14T23:41:35.423Z,6.67
2019-04-14T23:44:01.553Z,5.93
2019-04-14T23:46:27.401Z,5.50
2019-04-14T23:48:53.234Z,5.30
2019-04-14T23:51:19.076Z,5.10
2019-04-14T23:53:44.927Z,5.70
2019-04-14T23:56:10.790Z,5.17
2019-04-14T23:58:36.651Z,5.20
